Flight Track Log - Related Links

Times and Time Zones

All times are in EDT time to prevent confusion due to time zone crossing. See the SWA2436 flight status page for this flight to view local times or setup timezone preferences in your user account.

Time Position Orientation Groundspeed Altitude Reporting Facility
EDT Latitude Longitude Course Direction KTS MPH feet Rate Location/Type
Fri 08:55:49 PM 28.3500 -81.3167 180° South 210 242 4,800  Level Orlando TRACON
Fri 08:56:43 PM 28.3000 -81.3333 196° South 223 257 8,300 3,158 Climbing Orlando TRACON
Fri 08:57:43 PM 28.3000 -81.4167 270° West 302 348 10,800 2,618 Climbing Orlando TRACON
Fri 08:59:28 PM 28.3083 -81.6031 273° West 355 409 15,500 1,855 Climbing Jacksonville Center
Fri 09:00:28 PM 28.3072 -81.7183 269° West 365 420 15,900 1,500 Climbing Jacksonville Center
Fri 09:01:28 PM 28.2936 -81.8342 262° West 365 420 18,500 3,250 Climbing Jacksonville Center
Fri 09:02:28 PM 28.2697 -81.9664 258° West 378 435 22,400 3,050 Climbing Jacksonville Center
Fri 09:03:28 PM 28.2475 -82.0914 259° West 393 452 24,600 2,350 Climbing Jacksonville Center
Fri 09:04:28 PM 28.2483 -82.2233 270° West 413 475 27,100 2,150 Climbing Jacksonville Center
Fri 09:05:28 PM 28.2803 -82.3528 286° West 418 481 28,900 1,800 Climbing Jacksonville Center
Fri 09:06:28 PM 28.3119 -82.4869 285° West 432 497 30,700 2,100 Climbing Jacksonville Center
Fri 09:07:28 PM 28.3417 -82.6214 284° West 432 497 33,100 2,400 Climbing Jacksonville Center
Fri 09:08:28 PM 28.3731 -82.7511 285° West 432 497 35,500 2,300 Climbing Jacksonville Center
Fri 09:09:28 PM 28.4003 -82.8761 284° West 421 484 37,700 2,000 Climbing Jacksonville Center
Fri 09:10:28 PM 28.4275 -82.9917 285° West 405 466 39,500 1,150 Climbing Jacksonville Center
Fri 09:11:28 PM 28.4586 -83.1075 287° West 392 451 40,000 250 Climbing Jacksonville Center
Fri 09:12:28 PM 28.4833 -83.2233 284° West 387 445 40,000  Level Jacksonville Center
Fri 09:13:28 PM 28.5103 -83.3439 284° West 387 445 40,000  Level Jacksonville Center
Fri 09:14:28 PM 28.5347 -83.4597 284° West 387 445 40,000  Level Jacksonville Center
Fri 09:15:28 PM 28.5633 -83.5781 285° West 387 445 40,000  Level Jacksonville Center
Fri 09:16:28 PM 28.5919 -83.7011 285° West 394 453 40,000  Level Jacksonville Center
Fri 09:17:28 PM 28.6183 -83.8197 284° West 394 453 40,000  Level Jacksonville Center
Fri 09:18:28 PM 28.6444 -83.9428 284° West 394 453 40,000  Level Jacksonville Center
Fri 09:19:28 PM 28.6725 -84.0686 284° West 394 453 40,000  Level Jacksonville Center
Fri 09:20:28 PM 28.7006 -84.1872 285° West 399 459 40,000  Level Jacksonville Center
Fri 09:21:28 PM 28.7264 -84.3131 283° West 399 459 40,000  Level Jacksonville Center
Fri 09:22:28 PM 28.7542 -84.4367 284° West 399 459 40,000  Level Jacksonville Center
Fri 09:23:28 PM 28.7861 -84.5603 286° West 405 466 40,000  Level Jacksonville Center
Fri 09:24:28 PM 28.8114 -84.6911 282° West 416 479 40,000  Level Jacksonville Center
Fri 09:25:28 PM 28.8389 -84.8172 284° West 416 479 40,000  Level Jacksonville Center
Fri 09:26:28 PM 28.8658 -84.9481 283° West 416 479 40,000  Level Jacksonville Center
Fri 09:27:28 PM 28.8931 -85.0789 283° West 416 479 40,000  Level Jacksonville Center
Fri 09:28:28 PM 28.9222 -85.2053 285° West 416 479 40,000  Level Jacksonville Center
Fri 09:29:28 PM 28.9511 -85.3317 285° West 416 479 40,000  Level Jacksonville Center
Fri 09:30:28 PM 28.9778 -85.4653 283° West 416 479 40,000  Level Jacksonville Center
Fri 09:31:28 PM 29.0064 -85.5942 284° West 421 484 40,000  Level Jacksonville Center
Fri 09:32:28 PM 29.0306 -85.7256 282° West 421 484 40,000  Level Jacksonville Center
Fri 09:33:28 PM 29.0589 -85.8547 284° West 421 484 40,000  Level Jacksonville Center
Fri 09:34:28 PM 29.0850 -85.9861 283° West 421 484 40,000  Level Jacksonville Center
Fri 09:35:28 PM 29.1153 -86.1200 285° West 421 484 40,000  Level Jacksonville Center
Fri 09:36:28 PM 29.1411 -86.2494 283° West 421 484 40,000  Level Jacksonville Center
Fri 09:37:28 PM 29.1689 -86.3786 284° West 421 484 40,000  Level Jacksonville Center
Fri 09:38:28 PM 29.1908 -86.4911 283° West 414 476 40,000  Level Jacksonville Center
Fri 09:39:28 PM 29.2186 -86.6183 284° West 414 476 40,000  Level Jacksonville Center
Fri 09:40:28 PM 29.2439 -86.7453 283° West 414 476 40,000  Level Jacksonville Center
Fri 09:41:28 PM 29.2694 -86.8725 283° West 414 476 40,000  Level Jacksonville Center
Fri 09:42:28 PM 29.2944 -87.0019 283° West 414 476 40,000  Level Jacksonville Center
Fri 09:43:28 PM 29.3175 -87.1269 282° West 414 476 40,000  Level Jacksonville Center
Fri 09:44:28 PM 29.3425 -87.2564 283° West 414 476 40,000  Level Jacksonville Center
Fri 09:45:28 PM 29.3672 -87.3814 283° West 414 476 40,000  Level Jacksonville Center
Fri 09:46:20 PM 29.3906 -87.4981 283° West 408 470 40,000  Level Houston Center
Fri 09:47:21 PM 29.4153 -87.6231 283° West 405 466 40,000  Level Houston Center
Fri 09:48:22 PM 29.4414 -87.7506 283° West 406 467 40,000  Level Houston Center
Fri 09:49:24 PM 29.4650 -87.8794 282° West 409 471 40,000  Level Houston Center
Fri 09:50:25 PM 29.4881 -88.0069 282° West 409 471 40,000  Level Houston Center
Fri 09:51:26 PM 29.5106 -88.1347 281° West 409 471 40,000 -390 Level Houston Center
Fri 09:52:28 PM 29.5353 -88.2622 283° West 409 471 39,200 -878 Descending Houston Center
Fri 09:53:29 PM 29.5600 -88.3928 282° West 411 473 38,200 -1,869 Descending Houston Center
Fri 09:54:30 PM 29.5864 -88.5406 282° West 403 464 35,400 -2,878 Descending Houston Center
Fri 09:55:32 PM 29.6100 -88.6628 283° West 397 457 32,300 -2,732 Descending Houston Center
Fri 09:56:33 PM 29.6339 -88.7881 282° West 398 458 29,800 -2,410 Descending Houston Center
Fri 09:57:34 PM 29.6569 -88.9081 282° West 391 450 27,400 -2,361 Descending Houston Center
Fri 09:58:35 PM 29.6772 -89.0253 281° West 378 435 25,000 -2,262 Descending Houston Center
Fri 09:59:36 PM 29.6975 -89.1389 282° West 364 419 22,800 -2,146 Descending Houston Center
Fri 10:00:38 PM 29.7189 -89.2486 283° West 355 409 20,600 -2,098 Descending Houston Center
Fri 10:01:39 PM 29.7372 -89.3539 281° West 340 391 18,500 -2,211 Descending Houston Center
Fri 10:02:13 PM 29.7497 -89.4269 281° West 325 374 17,100 -2,066 Descending Houston Center
Fri 10:02:40 PM 29.7550 -89.4550 282° West 326 375 16,400 -2,149 Descending Houston Center
Fri 10:03:20 PM 29.7683 -89.5339 281° West 318 366 14,700 -2,066 Descending Houston Center
Fri 10:03:41 PM 29.7719 -89.5556 281° West 320 368 14,300 -2,066 Descending Houston Center
Fri 10:04:21 PM 29.8008 -89.6236 296° West 315 362 12,600 -1,935 Descending Houston Center
Fri 10:04:43 PM 29.8136 -89.6397 312° West 315 362 12,300 -1,100 Descending Houston Center
Fri 10:05:21 PM 29.8597 -89.6975 313° West 290 334 11,500 -984 Descending Houston Center
Fri 10:05:44 PM 29.8675 -89.7086 309° West 301 346 11,300 -1,672 Descending Houston Center
Fri 10:06:22 PM 29.9100 -89.7625 312° West 272 313 9,800 -2,164 Descending Houston Center
Fri 10:06:45 PM 29.9292 -89.7886 310° West 285 328 9,100 -1,778 Descending Houston Center
Fri 10:07:16 PM 29.9542 -89.8275 307° West 275 316 8,200 -1,672 Descending Houston Center
Fri 10:07:46 PM 29.9767 -89.8583 310° West 279 321 7,400 -1,574 Descending Houston Center
Fri 10:08:17 PM 30.0025 -89.8975 307° West 279 321 6,600 -1,377 Descending Houston Center
Fri 10:08:47 PM 30.0231 -89.9303 306° West 277 319 6,000 -787 Descending Houston Center
Fri 10:09:18 PM 30.0422 -89.9678 301° West 263 303 5,800 -689 Descending Houston Center
Fri 10:09:48 PM 30.0556 -90.0017 294° West 256 295 5,300 -800 Descending Houston Center
Fri 10:10:18 PM 30.0675 -90.0364 292° West 221 254 5,000 -774 Descending Houston Center
Fri 10:10:50 PM 30.0806 -90.0678 296° West 237 273 4,500 -1,075 Descending Houston Center
Fri 10:11:25 PM 30.0908 -90.1100 286° West 205 236 3,800 -1,180 Descending Houston Center
Fri 10:11:51 PM 30.0975 -90.1314 290° West 221 254 3,300 -1,200 Descending Houston Center
Fri 10:12:20 PM 30.0986 -90.1647 272° West 200 230 2,700 -1,279 Descending Houston Center
Fri 10:12:52 PM 30.1031 -90.1953 280° West 210 242 2,000 -778 Descending Houston Center
Fri 10:13:14 PM 30.0878 -90.2158 229° Southwest 193 222 2,000  Level Houston Center

Login

Don't have an account? Register now (free) for customized features, flight alerts, and more!